createdAt,value
2019-02-28T00:02:29.855Z,5.73
2019-02-28T00:04:58.335Z,3.57
2019-02-28T00:07:34.610Z,3.43
2019-02-28T00:10:08.946Z,3.70
2019-02-28T00:12:40.050Z,3.87
2019-02-28T00:15:14.205Z,3.87
2019-02-28T00:17:45.617Z,3.43
2019-02-28T00:20:25.621Z,3.40
2019-02-28T00:22:56.746Z,3.80
2019-02-28T00:25:29.441Z,3.70
2019-02-28T00:27:57.862Z,3.40
2019-02-28T00:30:29.101Z,3.47
2019-02-28T00:32:59.372Z,3.40
2019-02-28T00:35:30.122Z,3.07
2019-02-28T00:38:04.381Z,3.00
2019-02-28T00:40:38.535Z,3.30
2019-02-28T00:43:10.242Z,3.33
2019-02-28T00:45:38.663Z,3.13
2019-02-28T00:48:07.382Z,4.00
2019-02-28T00:50:35.795Z,3.50
2019-02-28T00:53:11.709Z,3.67
2019-02-28T00:55:40.118Z,3.67
2019-02-28T00:58:08.537Z,4.17
2019-02-28T01:00:38.164Z,4.43
2019-02-28T01:03:08.538Z,3.70
2019-02-28T01:05:41.410Z,4.10
2019-02-28T01:08:12.713Z,4.07
2019-02-28T01:10:42.838Z,3.70
2019-02-28T01:13:42.894Z,3.90
2019-02-28T01:15:44.857Z,3.60
2019-02-28T01:18:19.183Z,3.80
2019-02-28T01:20:56.607Z,3.70
2019-02-28T01:23:30.463Z,3.30
2019-02-28T01:26:07.829Z,3.40
2019-02-28T01:28:40.019Z,3.10
2019-02-28T01:31:11.666Z,3.03
2019-02-28T01:33:42.593Z,2.93
2019-02-28T01:36:15.554Z,3.03
2019-02-28T01:38:51.908Z,3.30
2019-02-28T01:41:20.314Z,3.10
2019-02-28T01:43:51.850Z,3.40
2019-02-28T01:46:21.912Z,3.03
2019-02-28T01:48:55.218Z,3.40
2019-02-28T01:51:36.581Z,3.17
2019-02-28T01:54:05.778Z,3.17
2019-02-28T01:56:37.889Z,2.83
2019-02-28T01:59:12.585Z,3.57
2019-02-28T02:01:43.729Z,3.37
2019-02-28T02:04:17.935Z,3.30
2019-02-28T02:06:47.416Z,3.03
2019-02-28T02:09:20.226Z,3.50
2019-02-28T02:11:54.385Z,3.50
2019-02-28T02:14:31.817Z,3.90
2019-02-28T02:17:02.266Z,3.67
2019-02-28T02:19:30.489Z,3.60
2019-02-28T02:22:09.193Z,3.80
2019-02-28T02:24:35.302Z,3.60
2019-02-28T02:27:03.789Z,3.87
2019-02-28T02:29:32.382Z,3.90
2019-02-28T02:32:08.141Z,3.67
2019-02-28T02:34:36.590Z,4.13
2019-02-28T02:37:05.022Z,4.03
2019-02-28T02:39:36.441Z,3.63
2019-02-28T02:42:11.444Z,3.90
2019-02-28T02:44:37.919Z,3.93
2019-02-28T02:47:06.344Z,3.87
2019-02-28T02:49:34.769Z,3.90
2019-02-28T02:52:04.083Z,4.10
2019-02-28T02:54:37.855Z,4.10
2019-02-28T02:57:09.240Z,4.30
2019-02-28T02:59:39.623Z,4.00
2019-02-28T03:02:08.049Z,3.60
2019-02-28T03:04:39.416Z,3.43
2019-02-28T03:07:07.850Z,3.17
2019-02-28T03:09:36.266Z,2.97
2019-02-28T03:12:06.709Z,3.30
2019-02-28T03:14:35.129Z,2.70
2019-02-28T03:17:09.658Z,2.93
2019-02-28T03:19:35.325Z,3.20
2019-02-28T03:22:03.734Z,3.20
2019-02-28T03:24:32.163Z,3.10
2019-02-28T03:27:00.869Z,3.00
2019-02-28T03:29:29.290Z,3.00
2019-02-28T03:32:06.143Z,3.70
2019-02-28T03:34:40.403Z,3.17
2019-02-28T03:37:08.891Z,3.57
2019-02-28T03:39:37.306Z,3.17
2019-02-28T03:42:05.745Z,4.00
2019-02-28T03:44:34.201Z,4.00
2019-02-28T03:47:02.628Z,3.47
2019-02-28T03:49:31.053Z,3.60
2019-02-28T03:52:06.660Z,4.07
2019-02-28T03:54:32.653Z,4.27
2019-02-28T03:57:05.622Z,3.43
2019-02-28T03:59:38.537Z,3.50
2019-02-28T04:02:08.612Z,3.27
2019-02-28T04:04:39.723Z,3.57
2019-02-28T04:07:15.541Z,3.43
2019-02-28T04:09:45.176Z,3.70
2019-02-28T04:12:15.361Z,3.20
2019-02-28T04:14:46.726Z,3.60
2019-02-28T04:17:29.828Z,3.83
2019-02-28T04:19:59.994Z,4.20
2019-02-28T04:22:29.487Z,3.97
2019-02-28T04:25:02.694Z,5.00
2019-02-28T04:27:34.364Z,5.17
2019-02-28T04:30:08.602Z,5.10
2019-02-28T04:32:41.523Z,4.67
2019-02-28T04:35:10.486Z,4.70
2019-02-28T04:37:44.893Z,5.00
2019-02-28T04:40:14.658Z,4.80
2019-02-28T04:42:46.037Z,5.60
2019-02-28T04:45:16.698Z,5.63
2019-02-28T04:47:47.929Z,4.43
2019-02-28T04:50:19.469Z,5.17
2019-02-28T04:52:48.291Z,5.03
2019-02-28T04:55:17.794Z,5.13
2019-02-28T04:57:56.090Z,5.17
2019-02-28T05:00:27.242Z,5.33
2019-02-28T05:02:55.657Z,7.13
2019-02-28T05:05:25.131Z,9.10
2019-02-28T05:08:05.827Z,12.33
2019-02-28T05:10:32.729Z,11.70
2019-02-28T05:13:01.145Z,9.90
2019-02-28T05:15:38.474Z,10.17
2019-02-28T05:18:09.049Z,8.67
2019-02-28T05:20:45.116Z,8.23
2019-02-28T05:23:10.598Z,9.00
2019-02-28T05:25:41.691Z,8.43
2019-02-28T05:28:12.450Z,9.80
2019-02-28T05:30:43.933Z,9.53
2019-02-28T05:33:15.305Z,9.33
2019-02-28T05:35:49.123Z,8.50
2019-02-28T05:38:20.737Z,8.53
2019-02-28T05:40:50.577Z,8.47
2019-02-28T05:43:20.629Z,8.77
2019-02-28T05:45:52.473Z,8.90
2019-02-28T05:48:25.370Z,8.40
2019-02-28T05:50:56.442Z,8.17
2019-02-28T05:53:27.827Z,8.10
2019-02-28T05:55:59.748Z,9.00
2019-02-28T05:58:40.193Z,9.33
2019-02-28T06:01:16.254Z,8.53
2019-02-28T06:03:44.670Z,9.10
2019-02-28T06:06:17.275Z,8.47
2019-02-28T06:08:44.962Z,8.73
2019-02-28T06:11:17.944Z,8.80
2019-02-28T06:13:49.639Z,8.83
2019-02-28T06:16:19.544Z,8.43
2019-02-28T06:18:49.589Z,8.80
2019-02-28T06:21:18.021Z,10.43
2019-02-28T06:23:54.445Z,10.73
2019-02-28T06:26:22.875Z,8.20
2019-02-28T06:28:51.610Z,9.03
2019-02-28T06:31:22.962Z,9.27
2019-02-28T06:34:05.668Z,8.13
2019-02-28T06:36:35.929Z,10.07
2019-02-28T06:39:09.801Z,8.93
2019-02-28T06:41:50.294Z,9.87
2019-02-28T06:44:27.051Z,9.07
2019-02-28T06:46:58.621Z,10.50
2019-02-28T06:49:32.274Z,9.83
2019-02-28T06:52:04.922Z,10.53
2019-02-28T06:54:42.065Z,11.73
2019-02-28T06:57:14.889Z,11.57
2019-02-28T06:59:43.305Z,12.57
2019-02-28T07:02:11.984Z,10.47
2019-02-28T07:04:52.338Z,10.60
2019-02-28T07:07:26.506Z,10.37
2019-02-28T07:09:54.922Z,10.57
2019-02-28T07:12:29.514Z,10.37
2019-02-28T07:14:59.294Z,10.23
2019-02-28T07:17:29.366Z,10.80
2019-02-28T07:20:04.266Z,10.53
2019-02-28T07:22:35.498Z,10.33
2019-02-28T07:25:09.462Z,10.67
2019-02-28T07:27:42.973Z,10.57
2019-02-28T07:30:19.616Z,10.90
2019-02-28T07:32:54.150Z,11.60
2019-02-28T07:35:25.664Z,10.17
2019-02-28T07:37:55.763Z,10.80
2019-02-28T07:40:24.237Z,10.57
2019-02-28T07:42:55.340Z,11.33
2019-02-28T07:45:29.696Z,10.97
2019-02-28T07:47:59.493Z,12.20
2019-02-28T07:50:32.475Z,11.33
2019-02-28T07:53:09.824Z,10.30
2019-02-28T07:55:41.338Z,11.30
2019-02-28T07:58:11.436Z,11.33
2019-02-28T08:00:45.758Z,11.07
2019-02-28T08:03:17.421Z,11.27
2019-02-28T08:05:45.860Z,11.20
2019-02-28T08:08:18.455Z,11.43
2019-02-28T08:10:55.906Z,11.93
2019-02-28T08:13:26.158Z,12.27
2019-02-28T08:15:56.842Z,11.83
2019-02-28T08:18:27.217Z,12.10
2019-02-28T08:20:58.134Z,12.10
2019-02-28T08:23:30.248Z,12.00
2019-02-28T08:26:02.522Z,12.40
2019-02-28T08:28:36.749Z,12.80
2019-02-28T08:31:04.480Z,11.97
2019-02-28T08:33:38.588Z,13.57
2019-02-28T08:36:12.675Z,13.40
2019-02-28T08:38:46.954Z,14.03
2019-02-28T08:41:18.600Z,13.77
2019-02-28T08:43:49.946Z,13.30
2019-02-28T08:46:19.214Z,13.80
2019-02-28T08:48:47.944Z,14.20
2019-02-28T08:51:16.403Z,14.17
2019-02-28T08:53:50.799Z,13.93
2019-02-28T08:56:20.675Z,14.57
2019-02-28T08:58:51.103Z,14.17
2019-02-28T09:01:21.177Z,13.90
2019-02-28T09:03:52.114Z,14.30
2019-02-28T09:06:37.937Z,12.80
2019-02-28T09:09:15.401Z,14.20
2019-02-28T09:11:44.221Z,13.90
2019-02-28T09:14:17.998Z,13.63
2019-02-28T09:16:59.113Z,14.00
2019-02-28T09:19:27.543Z,14.13
2019-02-28T09:22:03.866Z,13.10
2019-02-28T09:24:35.121Z,13.97
2019-02-28T09:27:04.078Z,14.33
2019-02-28T09:29:38.882Z,14.40
2019-02-28T09:32:13.609Z,13.43
2019-02-28T09:34:41.208Z,14.43
2019-02-28T09:37:09.943Z,14.03
2019-02-28T09:39:38.403Z,13.43
2019-02-28T09:42:14.862Z,13.40
2019-02-28T09:44:45.599Z,14.17
2019-02-28T09:47:16.758Z,14.03
2019-02-28T09:49:47.162Z,13.37
2019-02-28T09:52:17.307Z,13.40
2019-02-28T09:54:45.727Z,14.10
2019-02-28T09:57:15.404Z,14.63
2019-02-28T09:59:56.326Z,15.23
2019-02-28T10:02:26.406Z,14.40
2019-02-28T10:05:06.588Z,13.70
2019-02-28T10:07:41.630Z,15.40
2019-02-28T10:10:22.055Z,14.77
2019-02-28T10:12:53.566Z,13.77
2019-02-28T10:15:27.140Z,15.60
2019-02-28T10:17:57.208Z,14.03
2019-02-28T10:20:41.834Z,15.80
2019-02-28T10:23:09.106Z,17.07
2019-02-28T10:25:43.706Z,14.63
2019-02-28T10:28:16.619Z,15.37
2019-02-28T10:30:47.179Z,16.70
2019-02-28T10:33:17.176Z,17.80
2019-02-28T10:35:48.486Z,16.40
2019-02-28T10:38:18.567Z,17.13
2019-02-28T10:40:49.361Z,14.13
2019-02-28T10:43:20.046Z,15.73
2019-02-28T10:45:56.961Z,17.37
2019-02-28T10:48:29.758Z,18.10
2019-02-28T10:51:01.354Z,16.67
2019-02-28T10:53:36.229Z,15.80
2019-02-28T10:56:05.330Z,17.00
2019-02-28T10:58:33.755Z,15.87
2019-02-28T11:01:11.362Z,17.33
2019-02-28T11:03:44.894Z,16.67
2019-02-28T11:06:13.486Z,17.17
2019-02-28T11:08:47.455Z,17.23
2019-02-28T11:11:17.519Z,17.07
2019-02-28T11:13:47.582Z,17.50
2019-02-28T11:16:23.586Z,18.43
2019-02-28T11:18:51.929Z,18.80
2019-02-28T11:21:23.553Z,17.93
2019-02-28T11:23:54.688Z,18.70
2019-02-28T11:26:29.154Z,20.80
2019-02-28T11:29:02.874Z,18.67
2019-02-28T11:31:32.805Z,19.33
2019-02-28T11:34:04.362Z,19.20
2019-02-28T11:36:34.168Z,18.43
2019-02-28T11:39:04.966Z,17.97
2019-02-28T11:41:36.369Z,18.60
2019-02-28T11:44:04.792Z,16.97
2019-02-28T11:46:36.560Z,17.23
2019-02-28T11:49:13.786Z,18.27
2019-02-28T11:51:49.422Z,15.63
2019-02-28T11:54:18.479Z,17.30
2019-02-28T11:56:52.733Z,17.67
2019-02-28T11:59:25.326Z,15.37
2019-02-28T12:01:53.833Z,17.07
2019-02-28T12:04:32.450Z,15.47
2019-02-28T12:07:05.601Z,16.97
2019-02-28T12:09:35.651Z,17.33
2019-02-28T12:12:10.424Z,17.07
2019-02-28T12:14:38.981Z,17.33
2019-02-28T12:17:15.016Z,16.77
2019-02-28T12:19:47.590Z,19.03
2019-02-28T12:22:20.394Z,17.43
2019-02-28T12:24:50.459Z,17.70
2019-02-28T12:27:24.412Z,18.43
2019-02-28T12:30:10.582Z,20.23
2019-02-28T12:32:40.266Z,19.53
2019-02-28T12:35:12.662Z,18.83
2019-02-28T12:37:42.737Z,21.13
2019-02-28T12:40:31.941Z,19.40
2019-02-28T12:43:08.539Z,20.27
2019-02-28T12:45:38.076Z,18.57
2019-02-28T12:48:08.158Z,16.73
2019-02-28T12:50:36.573Z,16.00
2019-02-28T12:53:06.986Z,18.83
2019-02-28T12:55:39.119Z,17.13
2019-02-28T12:58:07.345Z,18.10
2019-02-28T13:00:37.811Z,17.87
2019-02-28T13:03:12.395Z,17.67
2019-02-28T13:05:40.885Z,17.97
2019-02-28T13:08:09.934Z,17.97
2019-02-28T13:10:42.180Z,16.67
2019-02-28T13:13:13.866Z,17.40
2019-02-28T13:15:46.839Z,18.23
2019-02-28T13:18:18.203Z,17.90
2019-02-28T13:20:49.683Z,17.73
2019-02-28T13:23:18.101Z,16.40
2019-02-28T13:25:51.835Z,16.50
2019-02-28T13:28:24.821Z,16.77
2019-02-28T13:30:53.418Z,17.67
2019-02-28T13:33:25.211Z,15.97
2019-02-28T13:35:56.953Z,16.97
2019-02-28T13:38:31.198Z,17.63
2019-02-28T13:41:02.391Z,16.67
2019-02-28T13:43:35.198Z,16.53
2019-02-28T13:46:04.095Z,15.97
2019-02-28T13:48:34.981Z,16.97
2019-02-28T13:51:08.507Z,17.57
2019-02-28T13:53:39.513Z,15.73
2019-02-28T13:56:11.169Z,15.47
2019-02-28T13:58:39.607Z,15.00
2019-02-28T14:01:10.720Z,14.60
2019-02-28T14:03:42.318Z,15.30
2019-02-28T14:06:18.876Z,14.53
2019-02-28T14:08:46.110Z,15.37
2019-02-28T14:11:20.114Z,14.87
2019-02-28T14:13:51.346Z,13.80
2019-02-28T14:16:26.395Z,14.93
2019-02-28T14:18:58.151Z,14.57
2019-02-28T14:21:26.737Z,14.93
2019-02-28T14:24:01.164Z,15.43
2019-02-28T14:26:32.243Z,14.30
2019-02-28T14:29:03.632Z,13.33
2019-02-28T14:31:32.971Z,14.10
2019-02-28T14:34:02.535Z,13.57
2019-02-28T14:36:35.737Z,14.07
2019-02-28T14:39:08.280Z,14.30
2019-02-28T14:41:41.963Z,14.87
2019-02-28T14:44:13.106Z,13.60
2019-02-28T14:46:44.293Z,14.07
2019-02-28T14:49:13.653Z,13.93
2019-02-28T14:51:42.349Z,12.90
2019-02-28T14:54:14.121Z,13.83
2019-02-28T14:56:54.389Z,14.17
2019-02-28T14:59:22.810Z,12.67
2019-02-28T15:02:00.205Z,11.90
2019-02-28T15:04:32.859Z,25.40
2019-02-28T15:07:04.355Z,14.33
2019-02-28T15:09:50.058Z,18.73
2019-02-28T15:12:24.600Z,11.80
2019-02-28T15:14:54.713Z,16.20
2019-02-28T15:17:24.806Z,15.57
2019-02-28T15:19:53.224Z,12.57
2019-02-28T15:22:30.981Z,14.00
2019-02-28T15:25:08.021Z,15.20
2019-02-28T15:27:39.880Z,13.37
2019-02-28T15:30:33.741Z,10.77
2019-02-28T15:33:04.725Z,10.67
2019-02-28T15:35:33.223Z,13.80
2019-02-28T15:38:01.661Z,15.60
2019-02-28T15:40:35.439Z,10.60
2019-02-28T15:43:04.038Z,11.87
2019-02-28T15:45:36.574Z,10.40
2019-02-28T15:48:05.743Z,10.87
2019-02-28T15:50:35.525Z,17.77
2019-02-28T15:53:04.325Z,14.27
2019-02-28T15:55:36.562Z,12.07
2019-02-28T15:58:05.859Z,10.67
2019-02-28T16:00:36.393Z,10.63
2019-02-28T16:03:05.617Z,10.03
2019-02-28T16:05:42.538Z,9.77
2019-02-28T16:08:10.815Z,10.60
2019-02-28T16:10:41.062Z,11.97
2019-02-28T16:13:09.491Z,10.40
2019-02-28T16:15:43.186Z,10.47
2019-02-28T16:18:18.737Z,13.27
2019-02-28T16:20:47.171Z,36.03
2019-02-28T16:23:16.016Z,19.00
2019-02-28T16:25:47.865Z,14.53
2019-02-28T16:28:17.287Z,14.03
2019-02-28T16:30:45.782Z,11.87
2019-02-28T16:33:14.213Z,12.67
2019-02-28T16:35:46.671Z,13.00
2019-02-28T16:38:19.861Z,12.97
2019-02-28T16:40:48.566Z,12.77
2019-02-28T16:43:17.410Z,13.43
2019-02-28T16:45:57.504Z,14.40
2019-02-28T16:48:26.194Z,15.60
2019-02-28T16:50:57.857Z,15.47
2019-02-28T16:53:32.566Z,16.60
2019-02-28T16:56:10.874Z,15.07
2019-02-28T16:58:40.382Z,15.67
2019-02-28T17:01:09.090Z,15.30
2019-02-28T17:03:38.416Z,15.83
2019-02-28T17:06:07.648Z,16.03
2019-02-28T17:08:37.805Z,16.27
2019-02-28T17:11:06.231Z,16.13
2019-02-28T17:13:38.872Z,15.90
2019-02-28T17:16:14.049Z,16.80
2019-02-28T17:18:48.470Z,16.43
2019-02-28T17:21:18.077Z,16.77
2019-02-28T17:23:49.681Z,16.87
2019-02-28T17:26:22.674Z,17.07
2019-02-28T17:28:58.430Z,17.63
2019-02-28T17:31:28.509Z,17.40
2019-02-28T17:33:58.539Z,16.13
2019-02-28T17:36:32.988Z,18.03
2019-02-28T17:39:01.713Z,16.57
2019-02-28T17:41:33.870Z,16.70
2019-02-28T17:44:28.806Z,17.93
2019-02-28T17:47:00.661Z,17.77
2019-02-28T17:49:49.823Z,17.30
2019-02-28T17:52:46.986Z,18.00
2019-02-28T17:55:34.810Z,19.20
2019-02-28T17:58:18.204Z,17.27
2019-02-28T18:01:13.831Z,18.70
2019-02-28T18:03:48.464Z,17.30
2019-02-28T18:06:33.189Z,19.30
2019-02-28T18:09:19.589Z,19.17
2019-02-28T18:12:23.506Z,17.93
2019-02-28T18:15:09.658Z,18.37
2019-02-28T18:17:41.302Z,17.83
2019-02-28T18:20:38.839Z,17.70
2019-02-28T18:23:21.091Z,18.97
2019-02-28T18:26:09.770Z,19.40
2019-02-28T18:28:58.034Z,17.87
2019-02-28T18:31:25.849Z,18.47
2019-02-28T18:33:58.302Z,18.93
2019-02-28T18:36:32.506Z,19.67
2019-02-28T18:39:04.802Z,18.80
2019-02-28T18:41:35.116Z,19.00
2019-02-28T18:44:04.962Z,18.10
2019-02-28T18:46:33.661Z,17.60
2019-02-28T18:49:14.077Z,18.13
2019-02-28T18:51:45.597Z,18.57
2019-02-28T18:54:16.274Z,19.13
2019-02-28T18:56:44.665Z,17.90
2019-02-28T18:59:16.352Z,18.80
2019-02-28T19:01:44.807Z,18.83
2019-02-28T19:04:13.227Z,18.47
2019-02-28T19:06:44.327Z,19.50
2019-02-28T19:09:24.644Z,19.17
2019-02-28T19:11:55.807Z,19.53
2019-02-28T19:14:24.246Z,18.20
2019-02-28T19:16:52.681Z,21.43
2019-02-28T19:19:32.585Z,20.20
2019-02-28T19:22:03.955Z,19.57
2019-02-28T19:24:32.409Z,19.87
2019-02-28T19:27:06.292Z,19.07
2019-02-28T19:29:34.779Z,19.60
2019-02-28T19:32:05.169Z,19.43
2019-02-28T19:34:41.989Z,18.40
2019-02-28T19:37:12.654Z,18.47
2019-02-28T19:39:42.912Z,19.23
2019-02-28T19:42:18.473Z,18.83
2019-02-28T19:44:47.107Z,18.00
2019-02-28T19:47:15.534Z,19.37
2019-02-28T19:49:45.604Z,19.27
2019-02-28T19:52:14.034Z,18.97
2019-02-28T19:54:45.650Z,19.00
2019-02-28T19:57:14.075Z,20.67
2019-02-28T19:59:48.438Z,21.50
2019-02-28T20:02:21.230Z,20.93
2019-02-28T20:04:55.363Z,20.67
2019-02-28T20:07:26.338Z,20.57
2019-02-28T20:09:56.293Z,20.60
2019-02-28T20:12:28.248Z,21.30
2019-02-28T20:14:56.692Z,21.63
2019-02-28T20:17:30.733Z,19.27
2019-02-28T20:20:05.174Z,21.10
2019-02-28T20:22:38.343Z,20.83
2019-02-28T20:25:05.413Z,21.10
2019-02-28T20:27:45.264Z,20.83
2019-02-28T20:30:18.234Z,20.10
2019-02-28T20:32:46.657Z,20.03
2019-02-28T20:35:15.529Z,19.53
2019-02-28T20:37:44.113Z,20.50
2019-02-28T20:40:15.388Z,19.70
2019-02-28T20:42:43.830Z,19.83
2019-02-28T20:45:17.028Z,20.67
2019-02-28T20:47:45.454Z,20.07
2019-02-28T20:50:26.882Z,19.97
2019-02-28T20:52:55.299Z,21.00
2019-02-28T20:55:26.389Z,23.27
2019-02-28T20:57:54.801Z,22.87
2019-02-28T21:00:24.858Z,24.23
2019-02-28T21:02:55.896Z,22.77
2019-02-28T21:05:32.489Z,24.73
2019-02-28T21:08:02.634Z,24.53
2019-02-28T21:10:32.699Z,24.97
2019-02-28T21:13:02.760Z,23.00
2019-02-28T21:15:33.737Z,24.53
2019-02-28T21:18:02.185Z,25.30
2019-02-28T21:20:30.629Z,25.17
2019-02-28T21:23:08.166Z,24.23
2019-02-28T21:25:41.133Z,24.47
2019-02-28T21:28:17.974Z,24.87
2019-02-28T21:30:46.414Z,24.13
2019-02-28T21:33:20.121Z,23.03
2019-02-28T21:35:51.466Z,20.27
2019-02-28T21:38:22.638Z,19.83
2019-02-28T21:40:53.776Z,18.93
2019-02-28T21:43:26.801Z,18.20
2019-02-28T21:45:59.421Z,16.90
2019-02-28T21:48:29.486Z,18.00
2019-02-28T21:50:59.620Z,15.60
2019-02-28T21:53:34.273Z,16.00
2019-02-28T21:56:09.810Z,15.57
2019-02-28T21:58:38.233Z,18.47
2019-02-28T22:01:08.566Z,19.30
2019-02-28T22:03:36.979Z,21.17
2019-02-28T22:06:11.005Z,21.30
2019-02-28T22:08:41.095Z,22.20
2019-02-28T22:11:14.215Z,21.90
2019-02-28T22:13:45.337Z,21.73
2019-02-28T22:16:25.111Z,21.67
2019-02-28T22:18:56.266Z,22.90
2019-02-28T22:21:35.209Z,22.93
2019-02-28T22:24:06.050Z,22.77
2019-02-28T22:26:40.262Z,22.17
2019-02-28T22:29:10.336Z,22.70
2019-02-28T22:31:52.386Z,21.17
2019-02-28T22:34:22.446Z,21.40
2019-02-28T22:36:55.086Z,21.20
2019-02-28T22:39:25.974Z,20.30
2019-02-28T22:41:54.654Z,21.77
2019-02-28T22:44:23.082Z,18.43
2019-02-28T22:46:57.542Z,20.03
2019-02-28T22:49:29.118Z,15.53
2019-02-28T22:52:00.488Z,14.70
2019-02-28T22:54:28.920Z,16.07
2019-02-28T22:57:03.127Z,13.87
2019-02-28T22:59:33.198Z,12.57
2019-02-28T23:02:01.627Z,12.80
2019-02-28T23:04:34.385Z,11.67
2019-02-28T23:07:08.538Z,11.27
2019-02-28T23:09:37.033Z,11.20
2019-02-28T23:12:08.530Z,10.70
2019-02-28T23:14:38.603Z,10.67
2019-02-28T23:17:10.087Z,10.43
2019-02-28T23:19:38.515Z,10.23
2019-02-28T23:22:11.231Z,11.27
2019-02-28T23:24:46.014Z,9.97
2019-02-28T23:27:23.618Z,11.50
2019-02-28T23:29:55.117Z,10.33
2019-02-28T23:32:37.141Z,11.10
2019-02-28T23:35:18.975Z,10.80
2019-02-28T23:37:49.035Z,11.93
2019-02-28T23:40:22.035Z,11.50
2019-02-28T23:42:53.309Z,11.97
2019-02-28T23:45:27.592Z,11.70
2019-02-28T23:47:58.927Z,11.60
2019-02-28T23:50:28.995Z,12.00
2019-02-28T23:52:59.054Z,12.73
2019-02-28T23:55:39.437Z,12.73
2019-02-28T23:58:07.863Z,12.10
